Decoded Metar for YPLM (LEARMONTH in AUSTRALIA) (IATA:LEA) | Meteo·Mobile Aviation Weather
aviador You're here:

YPLM Decoded Metar

LEARMONTH in AUSTRALIA
Report Time2020-02-18 22:00:00
UTC Time2020-02-18 22:44:06
Flight Rules vfr VFR
Wind230° at 08 kt
W.Decomp.*RWY 18: 5.2 kt HW 6.0 kt RCW
Visibility9999 m
Phenomena:N/A
Clouds:N/A
Expected CloudBase > 1,200 ft AGL from Temp-Dew spread
CeilingNone
Temp25°C (ISA +10)
Dew Point22°C (83% RH)
QNH1008 hPa
Density Alt1,699 ft
Elevation20 ft
Report Wrong Elevation
Raw Report
METAR YPLM 182200Z AUTO 23008KT 9999 // NCD 25/22 Q1008=

Extra information for YPLM:More info

Metar Taf Metar & Taf Last 4 Metars F.Rules Stats Wind Profile Meteogram Temp Stats Airport Information Weather charts Add Link Nearby VenuesMetar ALERT Operation Metar Decoded Social comments